Portada
METAR-TAF:

METAR-TAF

Aeropuertos :

Jubail, Arabia Saudita

latitud: 27-02-20N, longitud: 49-24-18E, altitud: 8 m

Observación

El informe se hizo hace 26 minutos, a las 23:00 UTC
Viento 4 kt del sur-sureste
Temperatura 8°C
Humedad 87%
Presión 1020 hPa
Visibilidad 10 km o más
sin nubes por debajo de 1500 m y sin presencia de cumulonimbus.

METAR: OEJB 242300Z AUTO 16004KT CAVOK 08/06 Q1020 NOSIG

Hora: 02:26 (23:26 UTC)


TAF: falta

Observaciones y pronósticos meteorológicos de más de 4000 aeropuertos (mensajes METAR y TAF).

Los puntos amarillos y rojos representan las estaciones disponibles.

Ponga el ratón en el punto deseado para ver el nombre de la estación.

Haga clic para ver las observaciones y los pronósticos meteorológicos.

Para cambiar el mapa : haga clic en los botones verdes con una cruz de color negro para hacer un zoom, en el botón verde con un guión para alejar o en las flechas verdes para mapas adyacentes.


METAR-TAF: